createdAt,value
2019-04-16T00:04:31.104Z,9.00
2019-04-16T00:07:03.193Z,9.05
2019-04-16T00:09:35.348Z,8.93
2019-04-16T00:12:07.625Z,9.03
2019-04-16T00:14:39.835Z,10.15
2019-04-16T00:17:13.188Z,9.13
2019-04-16T00:19:45.415Z,10.85
2019-04-16T00:22:17.376Z,17.02
2019-04-16T00:24:49.052Z,11.80
2019-04-16T00:27:19.908Z,11.43
2019-04-16T00:29:50.626Z,10.95
2019-04-16T00:32:22.498Z,10.88
2019-04-16T00:34:53.444Z,10.55
2019-04-16T00:37:24.125Z,9.38
2019-04-16T00:39:56.019Z,9.33
2019-04-16T00:42:27.108Z,9.83
2019-04-16T00:44:57.819Z,9.45
2019-04-16T00:47:28.627Z,9.78
2019-04-16T00:49:59.856Z,9.15
2019-04-16T00:52:30.855Z,9.25
2019-04-16T00:55:01.791Z,9.68
2019-04-16T00:57:32.542Z,9.83
2019-04-16T01:00:03.284Z,9.10
2019-04-16T01:02:35.157Z,10.28
2019-04-16T01:05:07.449Z,10.25
2019-04-16T01:07:38.238Z,8.90
2019-04-16T01:10:09.152Z,9.15
2019-04-16T01:12:40.451Z,8.63
2019-04-16T01:15:11.382Z,8.18
2019-04-16T01:17:42.143Z,8.95
2019-04-16T01:20:13.151Z,9.65
2019-04-16T01:22:46.603Z,8.75
2019-04-16T01:25:16.058Z,8.93
2019-04-16T01:27:48.164Z,9.70
2019-04-16T01:30:20.164Z,8.35
2019-04-16T01:32:52.506Z,8.65
2019-04-16T01:35:24.744Z,7.85
2019-04-16T01:37:57.456Z,8.53
2019-04-16T01:40:29.935Z,8.73
2019-04-16T01:43:00.564Z,7.70
2019-04-16T01:45:31.329Z,8.85
2019-04-16T01:48:06.891Z,7.87
2019-04-16T01:50:34.113Z,8.38
2019-04-16T01:53:05.095Z,8.43
2019-04-16T01:55:35.673Z,8.85
2019-04-16T01:58:06.501Z,7.72
2019-04-16T02:00:39.228Z,8.80
2019-04-16T02:03:09.526Z,8.50
2019-04-16T02:05:40.430Z,8.63
2019-04-16T02:08:11.149Z,8.90
2019-04-16T02:10:44.505Z,8.60
2019-04-16T02:13:15.932Z,8.15
2019-04-16T02:15:46.719Z,8.93
2019-04-16T02:18:17.780Z,9.15
2019-04-16T02:20:48.529Z,9.08
2019-04-16T02:23:19.308Z,9.45
2019-04-16T02:25:51.305Z,8.78
2019-04-16T02:28:22.305Z,8.53
2019-04-16T02:30:53.172Z,8.70
2019-04-16T02:33:24.801Z,8.50
2019-04-16T02:35:55.557Z,8.70
2019-04-16T02:38:26.347Z,9.20
2019-04-16T02:40:57.087Z,8.38
2019-04-16T02:43:28.025Z,8.48
2019-04-16T02:45:59.483Z,8.88
2019-04-16T02:48:30.398Z,9.60
2019-04-16T02:51:07.323Z,9.55
2019-04-16T02:53:37.046Z,9.50
2019-04-16T02:56:09.568Z,9.65
2019-04-16T02:58:41.686Z,10.23
2019-04-16T03:01:13.842Z,9.90
2019-04-16T03:03:46.076Z,10.03
2019-04-16T03:06:16.800Z,10.58
2019-04-16T03:08:47.938Z,11.57
2019-04-16T03:11:18.767Z,11.10
2019-04-16T03:13:49.392Z,11.28
2019-04-16T03:16:21.494Z,11.78
2019-04-16T03:18:53.677Z,10.43
2019-04-16T03:21:27.242Z,10.72
2019-04-16T03:23:56.788Z,10.68
2019-04-16T03:26:27.569Z,10.65
2019-04-16T03:28:59.075Z,10.48
2019-04-16T03:31:30.485Z,10.45
2019-04-16T03:34:01.259Z,10.45
2019-04-16T03:36:31.955Z,11.33
2019-04-16T03:39:02.864Z,11.05
2019-04-16T03:41:33.604Z,10.43
2019-04-16T03:44:05.107Z,10.55
2019-04-16T03:46:35.777Z,10.53
2019-04-16T03:49:06.653Z,10.68
2019-04-16T03:51:37.390Z,10.55
2019-04-16T03:54:08.004Z,10.00
2019-04-16T03:56:38.792Z,11.43
2019-04-16T03:59:11.597Z,11.93
2019-04-16T04:01:45.567Z,12.53
2019-04-16T04:04:14.415Z,12.15
2019-04-16T04:06:45.216Z,11.95
2019-04-16T04:09:18.921Z,12.63
2019-04-16T04:11:48.353Z,11.88
2019-04-16T04:14:22.404Z,11.97
2019-04-16T04:16:51.274Z,11.08
2019-04-16T04:19:21.951Z,12.15
2019-04-16T04:21:53.702Z,11.83
2019-04-16T04:24:24.691Z,12.05
2019-04-16T04:26:55.590Z,11.18
2019-04-16T04:29:27.608Z,11.50
2019-04-16T04:32:03.088Z,11.55
2019-04-16T04:34:30.340Z,12.30
2019-04-16T04:37:02.683Z,11.90
2019-04-16T04:39:32.978Z,11.15
2019-04-16T04:42:03.964Z,11.83
2019-04-16T04:44:36.890Z,12.45
2019-04-16T04:47:07.058Z,13.18
2019-04-16T04:49:37.906Z,12.28
2019-04-16T04:52:13.550Z,11.80
2019-04-16T04:54:41.437Z,11.65
2019-04-16T04:57:12.203Z,13.70
2019-04-16T04:59:42.914Z,13.48
2019-04-16T05:02:14.593Z,13.60
2019-04-16T05:04:49.650Z,12.95
2019-04-16T05:07:20.831Z,12.93
2019-04-16T05:09:51.836Z,13.60
2019-04-16T05:12:22.610Z,13.60
2019-04-16T05:14:57.812Z,13.98
2019-04-16T05:17:28.392Z,13.18
2019-04-16T05:19:59.716Z,13.80
2019-04-16T05:22:32.926Z,12.85
2019-04-16T05:25:02.853Z,12.33
2019-04-16T05:27:33.614Z,14.35
2019-04-16T05:30:04.712Z,13.65
2019-04-16T05:32:36.363Z,14.15
2019-04-16T05:35:10.253Z,12.98
2019-04-16T05:37:40.380Z,14.40
2019-04-16T05:40:11.386Z,14.15
2019-04-16T05:42:42.109Z,13.05
2019-04-16T05:45:13.335Z,13.48
2019-04-16T05:47:48.738Z,13.20
2019-04-16T05:50:16.787Z,12.93
2019-04-16T05:52:47.824Z,12.30
2019-04-16T05:55:20.101Z,12.37
2019-04-16T05:57:51.999Z,12.43
2019-04-16T06:00:24.413Z,11.78
2019-04-16T06:02:55.323Z,12.35
2019-04-16T06:05:27.918Z,11.63
2019-04-16T06:07:59.357Z,11.65
2019-04-16T06:10:30.151Z,11.83
2019-04-16T06:13:02.392Z,11.88
2019-04-16T06:15:35.853Z,12.13
2019-04-16T06:18:06.432Z,11.95
2019-04-16T06:20:38.898Z,11.78
2019-04-16T06:23:10.899Z,12.13
2019-04-16T06:25:43.437Z,11.28
2019-04-16T06:28:15.455Z,12.13
2019-04-16T06:30:47.341Z,11.95
2019-04-16T06:33:19.369Z,11.93
2019-04-16T06:35:51.378Z,12.43
2019-04-16T06:38:22.001Z,12.35
2019-04-16T06:40:54.967Z,11.73
2019-04-16T06:43:27.359Z,12.07
2019-04-16T06:45:59.548Z,11.20
2019-04-16T06:48:31.634Z,10.72
2019-04-16T06:51:03.673Z,10.80
2019-04-16T06:53:35.720Z,11.28
2019-04-16T06:56:08.687Z,11.25
2019-04-16T06:58:50.947Z,11.38
2019-04-16T07:01:14.810Z,10.05
2019-04-16T07:03:46.985Z,10.82
2019-04-16T07:06:18.985Z,10.98
2019-04-16T07:08:51.052Z,10.18
2019-04-16T07:11:23.154Z,10.32
2019-04-16T07:13:54.082Z,10.00
2019-04-16T07:16:27.927Z,10.45
2019-04-16T07:18:57.116Z,10.55
2019-04-16T07:21:27.820Z,10.30
2019-04-16T07:23:59.365Z,10.20
2019-04-16T07:26:30.429Z,9.53
2019-04-16T07:29:02.587Z,9.45
2019-04-16T07:31:35.111Z,9.40
2019-04-16T07:34:07.330Z,10.10
2019-04-16T07:36:39.566Z,9.70
2019-04-16T07:39:13.338Z,9.88
2019-04-16T07:41:45.592Z,9.93
2019-04-16T07:44:17.709Z,8.85
2019-04-16T07:46:50.064Z,9.25
2019-04-16T07:49:23.483Z,9.28
2019-04-16T07:51:55.516Z,9.15
2019-04-16T07:54:27.522Z,8.23
2019-04-16T07:56:58.353Z,8.90
2019-04-16T07:59:31.985Z,8.98
2019-04-16T08:02:01.103Z,8.70
2019-04-16T08:04:35.271Z,8.68
2019-04-16T08:07:04.077Z,8.28
2019-04-16T08:09:34.847Z,8.70
2019-04-16T08:12:10.735Z,10.35
2019-04-16T08:14:38.045Z,9.15
2019-04-16T08:17:09.566Z,9.35
2019-04-16T08:19:40.285Z,8.80
2019-04-16T08:22:15.448Z,8.63
2019-04-16T08:24:44.439Z,8.90
2019-04-16T08:27:18.996Z,9.68
2019-04-16T08:29:47.370Z,8.88
2019-04-16T08:32:18.308Z,8.85
2019-04-16T08:34:49.175Z,8.13
2019-04-16T08:37:19.749Z,8.75
2019-04-16T08:39:50.652Z,8.78
2019-04-16T08:42:24.371Z,9.03
2019-04-16T08:44:53.519Z,10.13
2019-04-16T08:47:25.018Z,9.88
2019-04-16T08:49:56.228Z,8.58
2019-04-16T08:52:27.034Z,13.68
2019-04-16T08:54:57.850Z,9.33
2019-04-16T08:57:31.777Z,9.23
2019-04-16T09:00:00.807Z,8.90
2019-04-16T09:02:31.420Z,10.10
2019-04-16T09:05:05.887Z,10.00
2019-04-16T09:07:35.760Z,11.12
2019-04-16T09:10:17.372Z,11.30
2019-04-16T09:12:45.634Z,11.08
2019-04-16T09:15:15.872Z,10.40
2019-04-16T09:17:48.058Z,10.48
2019-04-16T09:20:22.952Z,10.38
2019-04-16T09:22:53.622Z,14.43
2019-04-16T09:25:25.793Z,11.38
2019-04-16T09:28:00.774Z,11.08
2019-04-16T09:30:33.518Z,11.38
2019-04-16T09:33:05.601Z,11.70
2019-04-16T09:35:37.682Z,10.58
2019-04-16T09:38:13.027Z,11.60
2019-04-16T09:40:43.339Z,14.33
2019-04-16T09:43:18.515Z,13.20
2019-04-16T09:45:49.532Z,11.90
2019-04-16T09:48:20.614Z,11.35
2019-04-16T09:50:51.464Z,12.20
2019-04-16T09:53:32.648Z,12.68
2019-04-16T09:55:54.567Z,13.30
2019-04-16T09:58:26.663Z,15.30
2019-04-16T10:00:58.758Z,13.45
2019-04-16T10:03:30.846Z,15.38
2019-04-16T10:06:05.100Z,13.20
2019-04-16T10:08:34.115Z,14.20
2019-04-16T10:11:06.174Z,13.62
2019-04-16T10:13:37.388Z,13.95
2019-04-16T10:16:08.435Z,13.15
2019-04-16T10:18:39.308Z,13.90
2019-04-16T10:21:10.142Z,11.85
2019-04-16T10:23:42.402Z,12.47
2019-04-16T10:26:13.739Z,13.08
2019-04-16T10:28:45.836Z,13.83
2019-04-16T10:31:17.996Z,13.48
2019-04-16T10:33:48.910Z,13.25
2019-04-16T10:36:19.924Z,13.25
2019-04-16T10:38:52.289Z,13.85
2019-04-16T10:41:24.520Z,13.00
2019-04-16T10:43:56.710Z,12.33
2019-04-16T10:46:29.000Z,12.68
2019-04-16T10:49:01.227Z,12.35
2019-04-16T10:51:33.213Z,12.18
2019-04-16T10:54:05.772Z,11.65
2019-04-16T10:56:37.930Z,11.45
2019-04-16T10:59:10.323Z,11.25
2019-04-16T11:01:42.379Z,12.37
2019-04-16T11:04:14.601Z,15.50
2019-04-16T11:06:46.648Z,16.52
2019-04-16T11:09:17.271Z,15.38
2019-04-16T11:11:48.333Z,22.98
2019-04-16T11:14:18.949Z,22.95
2019-04-16T11:16:51.165Z,22.00
2019-04-16T11:19:22.243Z,22.17
2019-04-16T11:21:52.980Z,23.98
2019-04-16T11:24:23.690Z,24.43
2019-04-16T11:26:54.236Z,24.80
2019-04-16T11:29:24.983Z,24.55
2019-04-16T11:31:55.887Z,23.67
2019-04-16T11:34:26.916Z,22.48
2019-04-16T11:36:58.512Z,20.48
2019-04-16T11:39:29.486Z,23.00
2019-04-16T11:42:00.444Z,22.13
2019-04-16T11:44:31.295Z,24.50
2019-04-16T11:47:02.087Z,28.80
2019-04-16T11:49:32.775Z,28.05
2019-04-16T11:52:03.550Z,28.83
2019-04-16T11:54:34.574Z,32.38
2019-04-16T11:57:05.564Z,32.73
2019-04-16T11:59:38.228Z,32.45
2019-04-16T12:02:09.886Z,31.95
2019-04-16T12:04:40.447Z,30.72
2019-04-16T12:07:12.537Z,30.82
2019-04-16T12:09:44.655Z,29.57
2019-04-16T12:12:16.951Z,29.00
2019-04-16T12:14:49.222Z,31.55
2019-04-16T12:17:21.360Z,26.80
2019-04-16T12:19:53.504Z,27.13
2019-04-16T12:22:25.892Z,27.32
2019-04-16T12:24:58.062Z,27.98
2019-04-16T12:27:30.088Z,27.37
2019-04-16T12:30:00.623Z,26.68
2019-04-16T12:32:32.713Z,26.33
2019-04-16T12:35:04.879Z,26.45
2019-04-16T12:37:37.538Z,25.37
2019-04-16T12:40:10.827Z,22.52
2019-04-16T12:42:43.157Z,17.95
2019-04-16T12:45:15.725Z,17.20
2019-04-16T12:47:47.788Z,23.67
2019-04-16T12:50:20.033Z,21.42
2019-04-16T12:52:52.007Z,20.35
2019-04-16T12:55:24.196Z,18.75
2019-04-16T12:57:58.940Z,18.35
2019-04-16T13:00:31.706Z,19.60
2019-04-16T13:03:03.301Z,19.75
2019-04-16T13:05:35.582Z,21.17
2019-04-16T13:08:07.898Z,19.48
2019-04-16T13:10:39.995Z,20.72
2019-04-16T13:13:11.917Z,21.07
2019-04-16T13:15:43.971Z,19.57
2019-04-16T13:18:16.042Z,19.00
2019-04-16T13:20:48.292Z,18.48
2019-04-16T13:23:20.552Z,18.50
2019-04-16T13:25:53.250Z,18.92
2019-04-16T13:28:24.010Z,19.05
2019-04-16T13:30:54.956Z,18.32
2019-04-16T13:33:25.827Z,19.85
2019-04-16T13:35:56.576Z,19.80
2019-04-16T13:38:28.878Z,18.20
2019-04-16T13:41:01.793Z,18.07
2019-04-16T13:43:33.777Z,17.90
2019-04-16T13:46:05.153Z,16.90
2019-04-16T13:48:37.501Z,18.32
2019-04-16T13:51:12.646Z,17.92
2019-04-16T13:53:43.116Z,18.80
2019-04-16T13:56:18.517Z,19.00
2019-04-16T13:58:48.738Z,18.80
2019-04-16T14:01:19.183Z,20.27
2019-04-16T14:03:50.004Z,19.17
2019-04-16T14:06:20.729Z,18.55
2019-04-16T14:08:51.655Z,18.87
2019-04-16T14:11:22.440Z,17.57
2019-04-16T14:13:53.306Z,19.27
2019-04-16T14:16:24.223Z,18.57
2019-04-16T14:18:54.929Z,18.52
2019-04-16T14:21:25.804Z,17.32
2019-04-16T14:23:56.419Z,19.15
2019-04-16T14:26:27.336Z,19.85
2019-04-16T14:28:58.201Z,17.25
2019-04-16T14:31:29.200Z,17.17
2019-04-16T14:34:01.343Z,16.37
2019-04-16T14:36:32.091Z,16.42
2019-04-16T14:39:06.763Z,15.93
2019-04-16T14:41:36.043Z,16.93
2019-04-16T14:44:08.322Z,16.40
2019-04-16T14:46:39.238Z,16.93
2019-04-16T14:49:09.903Z,16.15
2019-04-16T14:51:40.676Z,16.60
2019-04-16T14:54:11.112Z,16.40
2019-04-16T14:56:43.273Z,17.20
2019-04-16T14:59:29.836Z,16.20
2019-04-16T15:01:48.730Z,17.25
2019-04-16T15:04:20.846Z,17.27
2019-04-16T15:06:52.732Z,16.77
2019-04-16T15:09:24.628Z,16.70
2019-04-16T15:11:58.231Z,17.32
2019-04-16T15:14:30.110Z,16.80
2019-04-16T15:17:02.290Z,17.45
2019-04-16T15:19:34.215Z,17.75
2019-04-16T15:22:06.969Z,15.80
2019-04-16T15:24:39.255Z,16.73
2019-04-16T15:27:09.788Z,16.07
2019-04-16T15:29:41.999Z,16.48
2019-04-16T15:32:13.999Z,17.35
2019-04-16T15:34:46.082Z,16.95
2019-04-16T15:37:18.243Z,16.93
2019-04-16T15:39:50.347Z,16.75
2019-04-16T15:42:22.388Z,16.75
2019-04-16T15:44:56.160Z,17.07
2019-04-16T15:47:26.369Z,16.82
2019-04-16T15:49:58.546Z,16.95
2019-04-16T15:52:30.723Z,17.60
2019-04-16T15:55:02.698Z,17.23
2019-04-16T15:57:33.019Z,18.37
2019-04-16T16:00:05.204Z,19.37
2019-04-16T16:02:37.202Z,17.85
2019-04-16T16:05:10.316Z,18.20
2019-04-16T16:07:42.481Z,18.50
2019-04-16T16:10:14.755Z,18.55
2019-04-16T16:12:45.754Z,18.75
2019-04-16T16:15:16.676Z,18.85
2019-04-16T16:17:47.642Z,18.37
2019-04-16T16:20:18.527Z,18.50
2019-04-16T16:22:49.428Z,17.30
2019-04-16T16:25:20.028Z,17.37
2019-04-16T16:27:50.885Z,17.40
2019-04-16T16:30:21.690Z,17.50
2019-04-16T16:32:52.418Z,19.05
2019-04-16T16:35:23.158Z,19.10
2019-04-16T16:37:54.067Z,18.65
2019-04-16T16:40:24.819Z,18.02
2019-04-16T16:42:55.358Z,17.42
2019-04-16T16:45:27.364Z,18.10
2019-04-16T16:47:58.152Z,18.57
2019-04-16T16:50:29.321Z,17.65
2019-04-16T16:53:01.396Z,17.00
2019-04-16T16:55:33.713Z,17.87
2019-04-16T16:58:05.875Z,16.73
2019-04-16T17:00:37.885Z,16.80
2019-04-16T17:03:10.380Z,16.62
2019-04-16T17:05:42.769Z,17.02
2019-04-16T17:08:13.551Z,17.15
2019-04-16T17:10:44.428Z,16.97
2019-04-16T17:13:18.931Z,16.37
2019-04-16T17:15:47.429Z,16.30
2019-04-16T17:18:18.217Z,15.98
2019-04-16T17:20:50.416Z,16.73
2019-04-16T17:23:21.029Z,16.23
2019-04-16T17:25:51.746Z,15.98
2019-04-16T17:28:22.506Z,19.92
2019-04-16T17:30:53.518Z,20.52
2019-04-16T17:33:24.172Z,16.52
2019-04-16T17:35:55.135Z,16.35
2019-04-16T17:38:25.956Z,15.85
2019-04-16T17:40:59.718Z,21.02
2019-04-16T17:43:31.540Z,17.65
2019-04-16T17:46:03.613Z,18.15
2019-04-16T17:48:35.782Z,17.55
2019-04-16T17:51:07.821Z,18.90
2019-04-16T17:53:39.883Z,17.87
2019-04-16T17:56:12.046Z,17.90
2019-04-16T17:58:44.439Z,19.37
2019-04-16T18:01:16.443Z,21.30
2019-04-16T18:03:48.508Z,16.73
2019-04-16T18:06:18.972Z,16.35
2019-04-16T18:08:50.957Z,16.37
2019-04-16T18:11:23.212Z,17.55
2019-04-16T18:13:55.349Z,17.48
2019-04-16T18:16:27.591Z,17.10
2019-04-16T18:18:59.689Z,18.15
2019-04-16T18:21:31.839Z,17.27
2019-04-16T18:24:04.020Z,17.55
2019-04-16T18:26:34.301Z,17.57
2019-04-16T18:29:04.789Z,17.85
2019-04-16T18:31:36.851Z,17.52
2019-04-16T18:34:09.206Z,17.90
2019-04-16T18:36:40.785Z,17.70
2019-04-16T18:39:12.871Z,16.35
2019-04-16T18:41:45.098Z,17.67
2019-04-16T18:44:17.185Z,17.45
2019-04-16T18:46:49.330Z,17.23
2019-04-16T18:49:21.489Z,18.23
2019-04-16T18:51:52.551Z,17.23
2019-04-16T18:54:23.313Z,17.02
2019-04-16T18:56:54.278Z,17.80
2019-04-16T18:59:25.210Z,17.62
2019-04-16T19:01:57.085Z,18.42
2019-04-16T19:04:27.851Z,17.87
2019-04-16T19:06:58.648Z,17.65
2019-04-16T19:09:29.345Z,17.12
2019-04-16T19:12:00.328Z,17.67
2019-04-16T19:14:30.901Z,17.85
2019-04-16T19:17:01.740Z,18.90
2019-04-16T19:19:32.587Z,18.27
2019-04-16T19:22:03.336Z,18.17
2019-04-16T19:24:34.235Z,18.73
2019-04-16T19:27:05.131Z,17.98
2019-04-16T19:29:36.004Z,17.92
2019-04-16T19:32:06.890Z,18.17
2019-04-16T19:34:40.974Z,17.32
2019-04-16T19:37:09.971Z,19.48
2019-04-16T19:39:40.583Z,18.25
2019-04-16T19:42:11.500Z,19.70
2019-04-16T19:44:42.645Z,19.15
2019-04-16T19:47:13.372Z,18.60
2019-04-16T19:49:44.214Z,18.82
2019-04-16T19:52:17.334Z,18.50
2019-04-16T19:54:47.219Z,19.05
2019-04-16T19:57:17.854Z,18.77
2019-04-16T19:59:48.927Z,19.82
2019-04-16T20:02:19.661Z,20.57
2019-04-16T20:04:50.877Z,17.90
2019-04-16T20:07:21.765Z,20.15
2019-04-16T20:09:53.270Z,19.02
2019-04-16T20:12:25.094Z,18.75
2019-04-16T20:14:56.335Z,18.40
2019-04-16T20:17:26.974Z,19.82
2019-04-16T20:19:59.431Z,18.48
2019-04-16T20:22:32.038Z,19.75
2019-04-16T20:25:02.881Z,19.73
2019-04-16T20:27:36.241Z,21.02
2019-04-16T20:30:06.931Z,20.77
2019-04-16T20:32:37.722Z,19.90
2019-04-16T20:35:08.642Z,20.37
2019-04-16T20:37:39.353Z,20.00
2019-04-16T20:40:10.088Z,20.95
2019-04-16T20:42:40.750Z,20.37
2019-04-16T20:45:12.553Z,20.27
2019-04-16T20:47:43.103Z,21.12
2019-04-16T20:50:14.184Z,20.72
2019-04-16T20:52:44.873Z,20.90
2019-04-16T20:55:16.726Z,19.62
2019-04-16T20:57:47.581Z,20.27
2019-04-16T21:00:19.862Z,20.80
2019-04-16T21:02:51.099Z,18.12
2019-04-16T21:05:22.774Z,20.15
2019-04-16T21:07:54.188Z,19.17
2019-04-16T21:10:24.860Z,19.37
2019-04-16T21:12:56.033Z,19.25
2019-04-16T21:15:27.435Z,17.92
2019-04-16T21:17:58.848Z,18.82
2019-04-16T21:20:29.697Z,18.65
2019-04-16T21:23:01.524Z,18.55
2019-04-16T21:25:32.476Z,19.00
2019-04-16T21:28:05.110Z,18.48
2019-04-16T21:30:36.177Z,19.95
2019-04-16T21:33:08.717Z,18.67
2019-04-16T21:35:40.924Z,19.98
2019-04-16T21:38:11.322Z,20.68
2019-04-16T21:40:42.158Z,19.07
2019-04-16T21:43:12.972Z,18.10
2019-04-16T21:45:45.572Z,20.40
2019-04-16T21:48:15.895Z,20.25
2019-04-16T21:50:47.560Z,19.45
2019-04-16T21:53:18.602Z,20.97
2019-04-16T21:55:49.250Z,20.60
2019-04-16T21:58:19.973Z,21.45
2019-04-16T22:00:50.706Z,20.90
2019-04-16T22:03:23.038Z,20.88
2019-04-16T22:05:53.631Z,21.27
2019-04-16T22:08:29.449Z,21.05
2019-04-16T22:10:56.495Z,21.70
2019-04-16T22:13:27.301Z,21.05
2019-04-16T22:15:58.686Z,20.97
2019-04-16T22:18:29.566Z,20.35
2019-04-16T22:21:00.499Z,20.40
2019-04-16T22:23:31.191Z,21.55
2019-04-16T22:26:03.000Z,20.88
2019-04-16T22:28:34.116Z,22.75
